Time;durP1;ratioP1;P1;durP2;ratioP2;P2;SDS_P1;SDS_P2;PMS_P1;PMS_P2;Temp;Humidity;BMP_temperature;BMP_pressure;BME280_temperature;BME280_humidity;BME280_pressure;Samples;Min_cycle;Max_cycle;Signal;HPM_P1;HPM_P2
2023/09/24 00:02:19;;;;;;;7.03;1.60;;;21.90;99.90;;;;;;5031400;28;20096;-73
2023/09/24 00:04:46;;;;;;;5.63;1.52;;;21.90;99.90;;;;;;5030862;28;20022;-73
2023/09/24 00:07:14;;;;;;;5.38;1.50;;;21.90;99.90;;;;;;5030951;28;20030;-74
2023/09/24 00:09:40;;;;;;;5.03;1.52;;;21.90;99.90;;;;;;5031040;28;20025;-73
2023/09/24 00:12:07;;;;;;;6.95;1.17;;;21.90;99.90;;;;;;5029391;28;20112;-73
2023/09/24 00:14:33;;;;;;;11.85;1.60;;;21.80;99.90;;;;;;5030971;28;20032;-73
2023/09/24 00:17:00;;;;;;;4.70;1.25;;;21.80;99.90;;;;;;5030763;28;20039;-73
2023/09/24 00:19:26;;;;;;;7.00;1.25;;;21.90;99.90;;;;;;5028699;28;20179;-73
2023/09/24 00:21:52;;;;;;;4.85;1.30;;;21.80;99.90;;;;;;5030634;28;20057;-73
2023/09/24 00:24:18;;;;;;;5.13;1.48;;;21.70;99.90;;;;;;5030187;28;20029;-73
2023/09/24 00:26:45;;;;;;;4.85;1.50;;;21.70;99.90;;;;;;5030277;28;20468;-73
2023/09/24 00:29:12;;;;;;;;;;;21.60;99.90;;;;;;5030950;28;20037;-72
2023/09/24 00:31:38;;;;;;;5.30;1.25;;;21.60;99.90;;;;;;5030430;28;19905;-73
2023/09/24 00:34:05;;;;;;;4.40;1.17;;;21.60;99.90;;;;;;5030452;28;20073;-73
2023/09/24 00:36:33;;;;;;;4.78;1.25;;;21.60;99.90;;;;;;5030323;28;20548;-72
2023/09/24 00:39:01;;;;;;;7.65;1.88;;;21.40;99.90;;;;;;5030234;28;20482;-72
2023/09/24 00:41:27;;;;;;;4.47;1.20;;;21.40;99.90;;;;;;5030249;28;20531;-72
2023/09/24 00:43:53;;;;;;;5.82;1.60;;;21.40;99.90;;;;;;5030401;28;20331;-73
2023/09/24 00:46:21;;;;;;;4.95;1.50;;;21.40;99.90;;;;;;5030372;28;20029;-71
2023/09/24 00:48:49;;;;;;;4.20;1.30;;;21.40;99.90;;;;;;5029827;28;20041;-72
2023/09/24 00:51:22;;;;;;;5.10;1.42;;;21.40;99.90;;;;;;5030380;28;20025;-73
2023/09/24 00:53:53;;;;;;;4.05;1.23;;;21.40;99.90;;;;;;5030369;28;20116;-72
2023/09/24 00:56:19;;;;;;;7.20;1.98;;;21.40;99.90;;;;;;5030082;28;20021;-73
2023/09/24 00:58:50;;;;;;;8.02;1.58;;;21.30;99.90;;;;;;5030642;28;20036;-74
2023/09/24 01:01:17;;;;;;;4.10;1.17;;;21.30;99.90;;;;;;5030049;28;20139;-73
2023/09/24 01:03:46;;;;;;;4.20;1.50;;;21.20;99.90;;;;;;5030174;28;20036;-73
2023/09/24 01:06:13;;;;;;;6.65;1.40;;;21.20;99.90;;;;;;5030196;28;20028;-72
2023/09/24 01:08:39;;;;;;;3.67;1.13;;;21.20;99.90;;;;;;5030061;28;20060;-72
2023/09/24 01:11:06;;;;;;;3.95;1.08;;;21.30;99.90;;;;;;5028264;28;20447;-73
2023/09/24 01:13:43;;;;;;;4.38;1.10;;;21.30;99.90;;;;;;5028199;28;20119;-73
2023/09/24 01:16:10;;;;;;;7.05;1.23;;;21.20;99.90;;;;;;5030005;28;20037;-73
2023/09/24 01:18:39;;;;;;;4.82;1.45;;;21.30;99.90;;;;;;5029449;28;20415;-73
2023/09/24 01:21:13;;;;;;;4.95;1.13;;;21.30;99.90;;;;;;5029714;28;20449;-72
2023/09/24 01:23:45;;;;;;;6.15;1.40;;;21.30;99.90;;;;;;5029616;28;20033;-71
2023/09/24 01:26:16;;;;;;;4.60;1.05;;;21.30;99.90;;;;;;5028139;28;20029;-72
2023/09/24 01:28:43;;;;;;;4.25;1.10;;;21.30;99.90;;;;;;5029586;28;20029;-72
2023/09/24 01:31:09;;;;;;;9.07;1.70;;;21.20;99.90;;;;;;5029899;28;20032;-72
2023/09/24 01:33:39;;;;;;;4.47;1.27;;;21.10;99.90;;;;;;5029742;28;20092;-73
2023/09/24 01:36:09;;;;;;;5.35;1.23;;;21.00;99.90;;;;;;5030427;28;20029;-72
2023/09/24 01:38:35;;;;;;;4.93;1.17;;;21.10;99.90;;;;;;5033808;28;20045;-73
2023/09/24 01:41:04;;;;;;;4.63;1.08;;;21.10;99.90;;;;;;5033719;28;20230;-72
2023/09/24 01:43:31;;;;;;;6.57;1.13;;;21.10;99.90;;;;;;5033749;28;20047;-72
2023/09/24 01:45:57;;;;;;;6.35;1.30;;;21.20;99.90;;;;;;5033418;28;20030;-74
2023/09/24 01:48:24;;;;;;;3.83;1.30;;;21.20;99.90;;;;;;5033610;28;20082;-73
2023/09/24 01:50:52;;;;;;;7.53;1.08;;;21.10;99.90;;;;;;5033046;28;20377;-72
2023/09/24 01:53:18;;;;;;;5.68;1.60;;;21.00;99.90;;;;;;5033234;28;20146;-72
2023/09/24 01:55:44;;;;;;;6.97;1.30;;;20.90;99.90;;;;;;5031733;28;20477;-72
2023/09/24 01:58:11;;;;;;;5.28;1.23;;;20.70;99.90;;;;;;5031649;28;20022;-72
2023/09/24 02:00:39;;;;;;;3.75;1.02;;;20.70;99.90;;;;;;5033050;28;20132;-72
2023/09/24 02:03:10;;;;;;;6.13;1.20;;;20.60;99.90;;;;;;5031598;28;20515;-72
2023/09/24 02:05:42;;;;;;;4.45;1.38;;;20.50;99.90;;;;;;5032829;28;20033;-72
2023/09/24 02:08:10;;;;;;;4.90;1.13;;;20.50;99.90;;;;;;5032954;28;20037;-72
2023/09/24 02:10:40;;;;;;;5.72;1.45;;;20.50;99.90;;;;;;5033082;28;20014;-72
2023/09/24 02:13:12;;;;;;;7.38;1.50;;;20.50;99.90;;;;;;5033157;28;20025;-73
2023/09/24 02:15:39;;;;;;;5.43;1.30;;;20.50;99.90;;;;;;5033080;28;20028;-73
2023/09/24 02:18:05;;;;;;;;;;;20.60;99.90;;;;;;5033437;28;20026;-73
2023/09/24 02:20:32;;;;;;;6.85;1.27;;;20.50;99.90;;;;;;5032806;28;19913;-73
2023/09/24 02:23:08;;;;;;;4.80;1.00;;;20.50;99.90;;;;;;5032806;28;20156;-72
2023/09/24 02:25:37;;;;;;;8.68;1.25;;;20.60;99.90;;;;;;5032981;28;20112;-72
2023/09/24 02:28:04;;;;;;;6.20;1.77;;;20.70;99.90;;;;;;5033003;28;20036;-72
2023/09/24 02:30:31;;;;;;;4.95;1.27;;;20.70;99.90;;;;;;5032751;28;20438;-72
2023/09/24 02:32:58;;;;;;;7.53;1.67;;;20.80;99.90;;;;;;5032647;28;20025;-72
2023/09/24 02:35:25;;;;;;;7.47;1.60;;;20.80;99.90;;;;;;5032456;28;20028;-72
2023/09/24 02:37:52;;;;;;;5.20;1.20;;;20.80;99.90;;;;;;5032723;28;20022;-72
2023/09/24 02:40:30;;;;;;;6.63;1.45;;;20.70;99.90;;;;;;5032445;28;20099;-72
2023/09/24 02:42:58;;;;;;;7.35;1.42;;;20.60;99.90;;;;;;5031117;28;20021;-72
2023/09/24 02:45:29;;;;;;;4.90;1.20;;;20.60;99.90;;;;;;5032442;28;20028;-72
2023/09/24 02:47:56;;;;;;;5.50;1.10;;;20.50;99.90;;;;;;5032120;28;20151;-71
2023/09/24 02:50:29;;;;;;;5.35;1.45;;;20.40;99.90;;;;;;5032396;28;20557;-72
2023/09/24 02:53:08;;;;;;;7.47;1.23;;;20.30;99.90;;;;;;5032626;28;20477;-71
2023/09/24 02:55:36;;;;;;;6.70;1.55;;;20.30;99.90;;;;;;5032587;28;20021;-72
2023/09/24 02:58:05;;;;;;;6.57;1.60;;;20.30;99.90;;;;;;5032238;28;20048;-71
2023/09/24 03:00:36;;;;;;;4.20;1.30;;;20.30;99.90;;;;;;5030529;28;20061;-73
2023/09/24 03:03:04;;;;;;;8.40;1.60;;;20.20;99.90;;;;;;5032629;28;20037;-73
2023/09/24 03:05:31;;;;;;;9.25;1.35;;;20.20;99.90;;;;;;5032008;28;20109;-73
2023/09/24 03:08:02;;;;;;;6.28;1.27;;;20.20;99.90;;;;;;5030661;28;20033;-73
2023/09/24 03:10:31;;;;;;;6.22;1.10;;;20.10;99.90;;;;;;5032175;28;20083;-72
2023/09/24 03:12:59;;;;;;;6.68;1.33;;;20.20;99.90;;;;;;5031849;28;20022;-73
2023/09/24 03:15:25;;;;;;;9.65;1.55;;;20.20;99.90;;;;;;5032033;28;20040;-73
2023/09/24 03:17:52;;;;;;;5.20;1.30;;;20.20;99.90;;;;;;5030315;28;20038;-73
2023/09/24 03:20:18;;;;;;;8.52;1.13;;;20.40;99.90;;;;;;5031635;28;20451;-73
2023/09/24 03:22:48;;;;;;;4.95;1.48;;;20.50;99.90;;;;;;5031909;28;20479;-73
2023/09/24 03:25:20;;;;;;;9.65;1.48;;;20.50;99.90;;;;;;5031692;28;20120;-73
2023/09/24 03:27:48;;;;;;;6.72;1.40;;;20.60;99.90;;;;;;5031925;28;20021;-73
2023/09/24 03:30:17;;;;;;;7.35;1.70;;;20.60;99.90;;;;;;5031859;28;20114;-73
2023/09/24 03:32:47;;;;;;;7.55;1.67;;;20.70;99.90;;;;;;5031587;28;20037;-73
2023/09/24 03:35:15;;;;;;;8.93;1.85;;;20.70;99.90;;;;;;5031477;28;20103;-73
2023/09/24 03:37:45;;;;;;;7.85;1.50;;;20.70;99.90;;;;;;5031496;28;20032;-73
2023/09/24 03:40:25;;;;;;;8.13;1.40;;;20.80;99.90;;;;;;5031677;28;20121;-74
2023/09/24 03:42:52;;;;;;;8.50;1.25;;;20.80;99.90;;;;;;5031892;28;20057;-72
2023/09/24 03:45:20;;;;;;;8.63;1.30;;;20.90;99.90;;;;;;5031563;28;20029;-72
2023/09/24 03:47:48;;;;;;;10.68;1.45;;;20.90;99.90;;;;;;5031079;28;20057;-73
2023/09/24 03:50:19;;;;;;;10.80;1.40;;;20.80;99.90;;;;;;5029461;28;20376;-73
2023/09/24 03:52:47;;;;;;;8.50;1.60;;;20.80;99.90;;;;;;5031402;28;20029;-73
2023/09/24 03:55:19;;;;;;;9.13;1.73;;;20.80;99.90;;;;;;5031201;28;20489;-72
2023/09/24 03:57:47;;;;;;;9.43;1.65;;;20.80;99.90;;;;;;5030647;28;20022;-72
2023/09/24 04:00:16;;;;;;;5.25;1.20;;;20.80;99.90;;;;;;5029279;28;20080;-73
2023/09/24 04:02:46;;;;;;;7.13;1.45;;;20.80;99.90;;;;;;5030987;28;20026;-73
2023/09/24 04:05:17;;;;;;;10.00;1.50;;;20.80;99.90;;;;;;5030702;28;20017;-73
2023/09/24 04:07:47;;;;;;;7.50;1.73;;;20.70;99.90;;;;;;5030806;28;20029;-73
2023/09/24 04:10:16;;;;;;;6.28;1.30;;;20.80;99.90;;;;;;5031099;28;20053;-72
2023/09/24 04:12:51;;;;;;;7.13;1.20;;;20.70;99.90;;;;;;5030856;28;20021;-72
2023/09/24 04:15:18;;;;;;;11.70;1.83;;;20.70;99.90;;;;;;5029188;28;20053;-72
2023/09/24 04:17:57;;;;;;;8.23;1.48;;;20.70;99.90;;;;;;5029145;28;20033;-72
2023/09/24 04:20:25;;;;;;;9.50;1.60;;;20.70;99.90;;;;;;5030340;28;20132;-73
2023/09/24 04:22:51;;;;;;;10.32;1.88;;;20.70;99.90;;;;;;5030484;28;20056;-72
2023/09/24 04:25:21;;;;;;;12.45;2.00;;;20.80;99.90;;;;;;5030407;28;20059;-72
2023/09/24 04:27:49;;;;;;;9.30;1.75;;;20.70;99.90;;;;;;5030605;28;20413;-73
2023/09/24 04:30:16;;;;;;;9.50;1.60;;;20.80;99.90;;;;;;5030427;28;20061;-73
2023/09/24 04:32:51;;;;;;;10.27;1.58;;;20.80;99.90;;;;;;5028793;28;20029;-72
2023/09/24 04:35:21;;;;;;;13.75;1.60;;;20.70;99.90;;;;;;5030214;28;20477;-73
2023/09/24 04:37:48;;;;;;;8.02;1.40;;;20.70;99.90;;;;;;5030309;28;20025;-72
2023/09/24 04:40:14;;;;;;;13.77;1.70;;;20.70;99.90;;;;;;5028897;28;20469;-72
2023/09/24 04:42:41;;;;;;;8.65;1.60;;;20.70;99.90;;;;;;5030217;28;20181;-72
2023/09/24 04:45:12;;;;;;;11.23;1.70;;;20.70;99.90;;;;;;5030264;28;20094;-72
2023/09/24 04:47:42;;;;;;;9.07;1.70;;;20.70;99.90;;;;;;5030178;28;20494;-73
2023/09/24 04:50:12;;;;;;;12.15;1.90;;;20.70;99.90;;;;;;5030021;28;20018;-73
2023/09/24 04:52:44;;;;;;;7.18;1.65;;;20.80;99.90;;;;;;5030368;28;20091;-72
2023/09/24 04:55:11;;;;;;;8.30;1.73;;;20.80;99.90;;;;;;5030125;28;20040;-74
2023/09/24 04:57:37;;;;;;;;;;;20.70;99.90;;;;;;5029098;28;20033;-72
2023/09/24 05:00:04;;;;;;;13.75;1.92;;;20.70;99.90;;;;;;5028376;28;20254;-72
2023/09/24 05:02:30;;;;;;;8.23;1.75;;;20.80;99.90;;;;;;5029915;28;20098;-72
2023/09/24 05:04:56;;;;;;;9.57;1.98;;;20.80;99.90;;;;;;5030002;28;20430;-73
2023/09/24 05:07:22;;;;;;;7.55;1.70;;;20.70;99.90;;;;;;5030040;28;20029;-72
2023/09/24 05:09:51;;;;;;;9.90;1.55;;;20.70;99.90;;;;;;5029143;28;20017;-72
2023/09/24 05:12:17;;;;;;;8.60;1.73;;;20.80;99.90;;;;;;5028405;28;20135;-73
2023/09/24 05:14:44;;;;;;;6.22;1.73;;;20.70;99.90;;;;;;5030020;28;20028;-73
2023/09/24 05:17:10;;;;;;;15.00;2.22;;;20.80;99.90;;;;;;5028339;28;20207;-73
2023/09/24 05:19:36;;;;;;;12.88;1.88;;;20.80;99.90;;;;;;5029589;28;20091;-73
2023/09/24 05:22:02;;;;;;;9.32;1.85;;;20.80;99.90;;;;;;5029723;28;20029;-73
2023/09/24 05:24:31;;;;;;;8.38;2.08;;;20.80;99.90;;;;;;5028171;28;20068;-73
2023/09/24 05:26:57;;;;;;;8.02;1.55;;;21.00;99.90;;;;;;5028193;28;20032;-73
2023/09/24 05:29:23;;;;;;;10.63;1.60;;;21.00;99.90;;;;;;5029810;28;20021;-74
2023/09/24 05:31:50;;;;;;;11.00;1.75;;;21.10;99.90;;;;;;5029677;28;20033;-73
2023/09/24 05:34:16;;;;;;;;;;;21.10;99.90;;;;;;5028758;28;20029;-73
2023/09/24 05:36:42;;;;;;;;;;;21.00;99.90;;;;;;5030232;28;19909;-73
2023/09/24 05:39:09;;;;;;;8.60;1.55;;;20.70;99.90;;;;;;5028117;28;19957;-74
2023/09/24 05:41:35;;;;;;;6.72;1.38;;;21.00;99.90;;;;;;5029647;28;20037;-73
2023/09/24 05:44:04;;;;;;;8.35;2.03;;;21.10;99.90;;;;;;5029868;28;20022;-73
2023/09/24 05:46:30;;;;;;;9.40;1.50;;;21.50;99.90;;;;;;5028072;28;20354;-73
2023/09/24 05:48:58;;;;;;;9.38;1.83;;;21.00;99.90;;;;;;5029308;28;20025;-74
2023/09/24 05:51:25;;;;;;;8.63;1.48;;;20.50;99.90;;;;;;5029110;28;20394;-73
2023/09/24 05:53:54;;;;;;;10.73;1.98;;;20.70;99.90;;;;;;5029306;28;20037;-73
2023/09/24 05:56:20;;;;;;;10.38;1.65;;;20.80;99.90;;;;;;5027807;28;20163;-73
2023/09/24 05:58:47;;;;;;;8.82;1.73;;;21.10;99.90;;;;;;5029338;28;20044;-73
2023/09/24 06:01:16;;;;;;;11.00;1.80;;;21.30;99.90;;;;;;5029227;28;20448;-73
2023/09/24 06:03:43;;;;;;;10.57;2.10;;;21.60;99.90;;;;;;5029277;28;20415;-73
2023/09/24 06:06:12;;;;;;;;;;;21.90;99.90;;;;;;5027801;28;20040;-73
2023/09/24 06:08:39;;;;;;;9.50;2.00;;;22.20;99.90;;;;;;5029337;28;19905;-73
2023/09/24 06:11:05;;;;;;;;;;;22.50;99.90;;;;;;5029686;28;20036;-73
2023/09/24 06:13:32;;;;;;;10.07;2.00;;;23.10;99.90;;;;;;5029172;28;19999;-73
2023/09/24 06:16:02;;;;;;;8.63;1.90;;;24.20;99.90;;;;;;5029239;28;20427;-73
2023/09/24 06:18:29;;;;;;;8.00;1.95;;;26.10;99.90;;;;;;5029847;28;20021;-74
2023/09/24 06:20:56;;;;;;;;;;;27.40;99.90;;;;;;5030468;28;20037;-72
2023/09/24 06:23:22;;;;;;;13.43;1.85;;;28.20;99.90;;;;;;5033887;28;20272;-73
2023/09/24 06:25:56;;;;;;;7.88;2.08;;;29.30;99.90;;;;;;5033621;28;20036;-73
2023/09/24 06:28:27;;;;;;;8.88;1.73;;;30.80;99.90;;;;;;5032139;28;20021;-73
2023/09/24 06:31:00;;;;;;;18.45;2.35;;;31.30;99.90;;;;;;5033812;28;20033;-73
2023/09/24 06:33:27;;;;;;;10.35;2.33;;;31.60;99.90;;;;;;5033493;28;20037;-74
2023/09/24 06:35:54;;;;;;;7.20;2.00;;;31.00;99.90;;;;;;5033323;28;20026;-73
2023/09/24 06:38:20;;;;;;;6.47;1.80;;;31.30;99.90;;;;;;5033899;28;20382;-73
2023/09/24 06:40:46;;;;;;;;;;;31.50;99.90;;;;;;5015839;28;20044;-73
2023/09/24 06:43:12;;;;;;;10.30;2.00;;;32.50;99.90;;;;;;5031803;28;20349;-73
2023/09/24 06:45:38;;;;;;;6.53;2.10;;;32.80;99.90;;;;;;5033762;28;20487;-73
2023/09/24 06:48:04;;;;;;;9.15;2.28;;;33.20;99.90;;;;;;5033257;28;20049;-74
2023/09/24 06:50:30;;;;;;;10.77;2.15;;;33.20;99.90;;;;;;5032323;28;20032;-72
2023/09/24 06:52:57;;;;;;;10.48;2.05;;;32.40;99.90;;;;;;5033276;28;20021;-72
2023/09/24 06:55:23;;;;;;;7.85;2.00;;;32.60;99.90;;;;;;5033218;28;20026;-74
2023/09/24 06:57:49;;;;;;;9.77;1.95;;;33.50;99.90;;;;;;5033441;28;20450;-73
2023/09/24 07:00:16;;;;;;;10.85;2.25;;;32.50;99.90;;;;;;5033449;28;20472;-73
2023/09/24 07:02:42;;;;;;;9.02;1.73;;;33.20;99.90;;;;;;5033311;28;20060;-73
2023/09/24 07:05:08;;;;;;;9.40;2.25;;;33.80;99.90;;;;;;5031430;28;20024;-73
2023/09/24 07:07:35;;;;;;;10.00;1.92;;;33.00;99.90;;;;;;5033010;28;20029;-73
2023/09/24 07:10:02;;;;;;;10.63;2.10;;;33.90;99.90;;;;;;5033243;28;20377;-73
2023/09/24 07:12:28;;;;;;;8.82;2.10;;;32.80;99.90;;;;;;5031485;28;20417;-73
2023/09/24 07:14:55;;;;;;;10.27;2.28;;;32.90;99.90;;;;;;5033012;28;20013;-73
2023/09/24 07:17:21;;;;;;;10.65;2.33;;;33.70;99.90;;;;;;5033109;28;20025;-73
2023/09/24 07:19:47;;;;;;;9.75;2.60;;;33.80;99.90;;;;;;5032517;28;20033;-73
2023/09/24 07:22:13;;;;;;;10.85;2.78;;;34.10;99.90;;;;;;5032620;28;20032;-73
2023/09/24 07:24:40;;;;;;;10.20;2.58;;;33.30;99.90;;;;;;5033002;28;20022;-73
2023/09/24 07:27:06;;;;;;;12.55;3.00;;;32.40;99.90;;;;;;5032942;28;20112;-73
2023/09/24 07:29:32;;;;;;;13.88;2.58;;;30.80;99.90;;;;;;5032688;28;20051;-73
2023/09/24 07:31:58;;;;;;;10.43;2.75;;;30.50;99.90;;;;;;5032785;28;20507;-73
2023/09/24 07:34:28;;;;;;;12.23;2.35;;;30.10;99.90;;;;;;5031673;28;20033;-72
2023/09/24 07:36:55;;;;;;;11.00;2.60;;;30.20;99.90;;;;;;5032086;28;20061;-73
2023/09/24 07:39:21;;;;;;;8.05;2.10;;;29.90;99.90;;;;;;5032682;28;20064;-73
2023/09/24 07:41:49;;;;;;;;;;;30.10;99.90;;;;;;5032707;28;20033;-72
2023/09/24 07:44:16;;;;;;;9.60;2.40;;;29.90;99.90;;;;;;5030786;28;20244;-73
2023/09/24 07:46:42;;;;;;;7.40;2.00;;;29.60;99.90;;;;;;5030504;28;20060;-72
2023/09/24 07:49:08;;;;;;;6.72;2.22;;;29.60;99.90;;;;;;5032194;28;20037;-74
2023/09/24 07:51:34;;;;;;;11.25;2.17;;;29.50;99.90;;;;;;5030752;28;20091;-73
2023/09/24 07:54:00;;;;;;;11.48;2.58;;;29.50;99.90;;;;;;5031763;28;20151;-73
2023/09/24 07:56:27;;;;;;;11.88;2.28;;;29.60;99.90;;;;;;5031636;28;20029;-72
2023/09/24 07:58:55;;;;;;;7.93;2.00;;;29.90;99.90;;;;;;5032242;28;20108;-72
2023/09/24 08:01:22;;;;;;;7.78;2.10;;;28.90;99.90;;;;;;5032024;28;20043;-72
2023/09/24 08:03:49;;;;;;;14.90;2.40;;;29.10;99.90;;;;;;5031617;28;20025;-74
2023/09/24 08:06:16;;;;;;;;;;;28.80;99.90;;;;;;5030169;28;20370;-72
2023/09/24 08:08:42;;;;;;;8.20;2.13;;;29.20;99.90;;;;;;5031508;28;19963;-72
2023/09/24 08:11:08;;;;;;;;;;;29.20;99.90;;;;;;5031969;28;20079;-72
2023/09/24 08:13:34;;;;;;;10.45;2.30;;;29.30;99.90;;;;;;5031130;28;19909;-73
2023/09/24 08:16:01;;;;;;;8.35;2.15;;;28.80;99.90;;;;;;5031135;28;20512;-73
2023/09/24 08:18:27;;;;;;;8.65;2.28;;;28.60;99.90;;;;;;5030667;28;20037;-72
2023/09/24 08:20:53;;;;;;;;;;;28.50;99.90;;;;;;5032438;28;20034;-72
2023/09/24 08:23:21;;;;;;;9.10;1.98;;;28.40;99.90;;;;;;5032209;28;19905;-73
2023/09/24 08:25:50;;;;;;;9.13;2.38;;;27.90;99.90;;;;;;5032285;28;20031;-72
2023/09/24 08:28:17;;;;;;;8.63;2.47;;;28.40;99.90;;;;;;5030891;28;20477;-72
2023/09/24 08:30:43;;;;;;;10.82;2.17;;;28.80;99.90;;;;;;5032069;28;20055;-72
2023/09/24 08:33:10;;;;;;;9.50;2.00;;;28.40;99.90;;;;;;5030617;28;20113;-72
2023/09/24 08:35:36;;;;;;;8.80;2.15;;;29.00;99.90;;;;;;5032223;28;20694;-73
2023/09/24 08:38:03;;;;;;;9.88;1.80;;;28.40;99.90;;;;;;5030516;28;20501;-72
2023/09/24 08:40:30;;;;;;;8.48;2.10;;;28.10;99.90;;;;;;5032299;28;20029;-71
2023/09/24 08:42:57;;;;;;;7.85;1.90;;;28.80;99.90;;;;;;5030479;28;20389;-72
2023/09/24 08:45:26;;;;;;;6.90;2.10;;;29.00;99.90;;;;;;5031724;28;20408;-71
2023/09/24 08:47:53;;;;;;;11.52;2.20;;;29.20;99.90;;;;;;5031856;28;20033;-72
2023/09/24 08:50:20;;;;;;;5.97;2.00;;;28.60;99.90;;;;;;5031505;28;20117;-72
2023/09/24 08:52:46;;;;;;;6.38;1.90;;;28.80;99.90;;;;;;5029494;28;20112;-72
2023/09/24 08:55:14;;;;;;;8.10;2.30;;;28.00;99.90;;;;;;5029748;28;20025;-72
2023/09/24 08:57:43;;;;;;;9.38;1.80;;;27.20;99.90;;;;;;5031335;28;20018;-72
2023/09/24 09:00:11;;;;;;;8.35;2.05;;;27.50;99.90;;;;;;5029645;28;20041;-72
2023/09/24 09:02:45;;;;;;;12.48;2.42;;;27.80;99.90;;;;;;5031305;28;20404;-72
2023/09/24 09:05:25;;;;;;;6.95;2.00;;;28.50;99.90;;;;;;5031238;28;20025;-72
2023/09/24 09:07:59;;;;;;;9.45;2.13;;;27.90;99.90;;;;;;5030894;28;20122;-72
2023/09/24 09:10:30;;;;;;;10.30;2.03;;;27.80;99.90;;;;;;5031381;28;20394;-72
2023/09/24 09:13:14;;;;;;;8.07;2.08;;;28.10;99.90;;;;;;5031405;28;20466;-72
2023/09/24 09:15:41;;;;;;;6.45;2.25;;;28.50;99.90;;;;;;5029183;28;20025;-72
2023/09/24 09:18:29;;;;;;;5.60;1.58;;;28.50;99.90;;;;;;5030993;28;20025;-72
2023/09/24 09:21:02;;;;;;;7.45;2.22;;;28.00;99.90;;;;;;5029377;28;20145;-72
2023/09/24 09:23:38;;;;;;;8.88;2.28;;;28.10;99.90;;;;;;5029616;28;20022;-72
2023/09/24 09:26:04;;;;;;;;;;;28.10;99.90;;;;;;5031350;28;20394;-72
2023/09/24 09:28:36;;;;;;;12.98;2.42;;;28.70;99.90;;;;;;5029433;28;19905;-72
2023/09/24 09:31:04;;;;;;;6.82;1.88;;;28.40;99.90;;;;;;5031295;28;20024;-73
2023/09/24 09:33:36;;;;;;;8.73;1.95;;;28.40;99.90;;;;;;5030830;28;20021;-72
2023/09/24 09:36:03;;;;;;;11.40;2.10;;;27.80;99.90;;;;;;5029375;28;20021;-72
2023/09/24 09:38:30;;;;;;;14.80;2.17;;;27.80;99.90;;;;;;5031089;28;20462;-72
2023/09/24 09:40:58;;;;;;;11.20;2.20;;;27.20;99.90;;;;;;5030686;28;20044;-72
2023/09/24 09:43:33;;;;;;;9.15;2.55;;;26.90;99.90;;;;;;5030872;28;20029;-73
2023/09/24 09:46:03;;;;;;;14.25;2.58;;;27.40;99.90;;;;;;5030607;28;20030;-72
2023/09/24 09:48:33;;;;;;;7.13;1.92;;;26.90;99.90;;;;;;5030667;28;20508;-72
2023/09/24 09:51:09;;;;;;;9.80;2.03;;;27.20;99.90;;;;;;5030166;28;20095;-72
2023/09/24 09:53:37;;;;;;;9.25;1.98;;;27.60;99.90;;;;;;5030532;28;20068;-72
2023/09/24 09:56:06;;;;;;;11.00;1.95;;;28.10;99.90;;;;;;5029758;28;20027;-72
2023/09/24 09:58:34;;;;;;;6.38;1.90;;;28.40;99.90;;;;;;5033166;28;20036;-72
2023/09/24 10:01:01;;;;;;;6.50;1.80;;;27.90;99.90;;;;;;5034691;28;20060;-73
2023/09/24 10:03:31;;;;;;;8.02;2.03;;;27.20;99.90;;;;;;5034675;28;20083;-73
2023/09/24 10:05:59;;;;;;;8.82;2.13;;;27.00;99.90;;;;;;5034285;28;20037;-72
2023/09/24 10:08:45;;;;;;;8.77;2.13;;;26.90;99.90;;;;;;5034607;28;20097;-71
2023/09/24 10:11:32;;;;;;;7.07;1.80;;;26.60;99.90;;;;;;5034617;28;20090;-73
2023/09/24 10:14:04;;;;;;;6.75;2.03;;;26.70;99.90;;;;;;5034438;28;20029;-72
2023/09/24 10:16:38;;;;;;;6.85;1.70;;;26.90;99.90;;;;;;5034686;28;20539;-72
2023/09/24 10:19:14;;;;;;;7.55;2.40;;;27.10;99.90;;;;;;5034951;28;20445;-73
2023/09/24 10:21:46;;;;;;;8.83;2.23;;;27.30;99.90;;;;;;5034253;28;20516;-73
2023/09/24 10:24:15;;;;;;;7.55;2.00;;;27.00;99.90;;;;;;5033179;28;20643;-73
2023/09/24 10:26:49;;;;;;;6.97;1.98;;;27.10;99.90;;;;;;5034141;28;20108;-72
2023/09/24 10:29:17;;;;;;;10.70;2.45;;;27.30;99.90;;;;;;5034114;28;20104;-73
2023/09/24 10:32:10;;;;;;;7.38;1.98;;;27.10;99.90;;;;;;5034414;28;20048;-72
2023/09/24 10:34:54;;;;;;;10.90;2.00;;;26.70;99.90;;;;;;5033804;28;20075;-72
2023/09/24 10:37:22;;;;;;;9.38;2.03;;;26.80;99.90;;;;;;5034241;28;20115;-72
2023/09/24 10:40:12;;;;;;;7.20;1.63;;;26.90;99.90;;;;;;5032411;28;20470;-71
2023/09/24 10:42:42;;;;;;;7.50;1.60;;;27.10;99.90;;;;;;5032596;28;20037;-72
2023/09/24 10:45:09;;;;;;;6.68;1.67;;;27.40;99.90;;;;;;5032694;28;20029;-71
2023/09/24 10:47:40;;;;;;;7.32;1.52;;;27.50;99.90;;;;;;5032141;28;20152;-72
2023/09/24 10:50:25;;;;;;;8.27;1.70;;;27.60;99.90;;;;;;5032571;28;20103;-72
2023/09/24 10:52:57;;;;;;;9.13;1.88;;;27.60;99.90;;;;;;5033830;28;20025;-71
2023/09/24 10:55:39;;;;;;;11.02;2.00;;;28.00;99.90;;;;;;5032376;28;20108;-71
2023/09/24 10:58:23;;;;;;;8.38;1.80;;;27.70;99.90;;;;;;5031929;28;20348;-71
2023/09/24 11:00:51;;;;;;;7.30;1.85;;;28.20;99.90;;;;;;5033950;28;20470;-73
2023/09/24 11:03:17;;;;;;;7.28;1.95;;;28.20;99.90;;;;;;5033878;28;20025;-72
2023/09/24 11:05:48;;;;;;;8.52;2.17;;;28.10;99.90;;;;;;5033540;28;20061;-72
2023/09/24 11:08:17;;;;;;;7.43;2.20;;;28.40;99.90;;;;;;5033180;28;20488;-72
2023/09/24 11:10:48;;;;;;;6.30;2.00;;;28.50;99.90;;;;;;5033357;28;20037;-73
2023/09/24 11:13:15;;;;;;;8.27;2.20;;;28.60;99.90;;;;;;5033539;28;20032;-71
2023/09/24 11:15:42;;;;;;;8.05;1.98;;;28.80;99.90;;;;;;5033381;28;20056;-71
2023/09/24 11:18:12;;;;;;;7.35;1.73;;;28.50;99.90;;;;;;5031742;28;20088;-71
2023/09/24 11:20:46;;;;;;;8.57;2.03;;;28.20;99.90;;;;;;5033085;28;20040;-72
2023/09/24 11:23:13;;;;;;;14.07;2.22;;;28.40;99.90;;;;;;5033352;28;20195;-72
2023/09/24 11:25:46;;;;;;;8.23;2.17;;;28.70;99.90;;;;;;5032987;28;20079;-71
2023/09/24 11:28:12;;;;;;;9.50;2.13;;;28.80;99.90;;;;;;5033424;28;20033;-72
2023/09/24 11:30:49;;;;;;;8.45;1.95;;;28.30;99.90;;;;;;5033141;28;20029;-72
2023/09/24 11:33:23;;;;;;;7.43;2.25;;;27.90;99.90;;;;;;5032882;28;20021;-72
2023/09/24 11:35:50;;;;;;;11.50;2.30;;;28.00;99.90;;;;;;5031497;28;20429;-71
2023/09/24 11:38:34;;;;;;;6.25;2.15;;;28.30;99.90;;;;;;5031340;28;20049;-72
2023/09/24 11:41:12;;;;;;;8.93;2.50;;;28.40;99.90;;;;;;5033055;28;20089;-71
2023/09/24 11:43:40;;;;;;;6.53;2.25;;;28.50;99.90;;;;;;5032781;28;20049;-73
2023/09/24 11:46:25;;;;;;;9.25;2.05;;;28.70;99.90;;;;;;5032952;28;20033;-72
2023/09/24 11:48:56;;;;;;;8.93;2.00;;;28.50;99.90;;;;;;5032611;28;20127;-72
2023/09/24 11:51:22;;;;;;;9.02;2.40;;;28.60;99.90;;;;;;5032858;28;20029;-72
2023/09/24 11:53:49;;;;;;;6.03;1.95;;;28.40;99.90;;;;;;5032925;28;20069;-72
2023/09/24 11:56:15;;;;;;;36.10;3.92;;;28.70;99.90;;;;;;5032538;28;20018;-71
2023/09/24 11:58:41;;;;;;;9.55;2.38;;;28.70;99.90;;;;;;5032651;28;20128;-72
2023/09/24 12:01:09;;;;;;;10.98;2.47;;;28.30;99.90;;;;;;5032356;28;20124;-72
2023/09/24 12:03:35;;;;;;;8.73;2.20;;;28.80;99.90;;;;;;5032626;28;20454;-73
2023/09/24 12:06:03;;;;;;;9.00;2.55;;;29.00;99.90;;;;;;5032068;28;20025;-72
2023/09/24 12:08:29;;;;;;;6.43;2.10;;;29.30;99.90;;;;;;5032436;28;20025;-72
2023/09/24 12:10:55;;;;;;;8.30;2.50;;;28.40;99.90;;;;;;5032374;28;20394;-72
2023/09/24 12:13:22;;;;;;;16.13;2.67;;;28.60;99.90;;;;;;5030737;28;20033;-72
2023/09/24 12:15:48;;;;;;;9.70;2.00;;;29.00;99.90;;;;;;5032540;28;20369;-73
2023/09/24 12:18:15;;;;;;;6.70;1.92;;;28.90;99.90;;;;;;5032868;28;20438;-73
2023/09/24 12:20:42;;;;;;;12.82;2.25;;;28.70;99.90;;;;;;5032163;28;20060;-73
2023/09/24 12:23:09;;;;;;;7.60;2.05;;;28.60;99.90;;;;;;5032478;28;20101;-73
2023/09/24 12:25:37;;;;;;;10.00;1.92;;;28.70;99.90;;;;;;5030987;28;20202;-73
2023/09/24 12:28:04;;;;;;;6.50;1.60;;;28.70;99.90;;;;;;5032260;28;20025;-72
2023/09/24 12:30:31;;;;;;;91.00;6.43;;;28.50;99.90;;;;;;5032211;28;20061;-72
2023/09/24 12:32:56;;;;;;;;;;;28.40;99.90;;;;;;5031218;28;20090;-72
2023/09/24 12:35:24;;;;;;;;;;;28.10;99.90;;;;;;5032456;28;19912;-72
2023/09/24 12:37:54;;;;;;;7.18;1.88;;;28.50;99.90;;;;;;5032505;28;19908;-73
2023/09/24 12:40:21;;;;;;;9.52;2.10;;;28.70;99.90;;;;;;5032175;28;20033;-73
2023/09/24 12:42:47;;;;;;;8.85;2.05;;;29.00;99.50;;;;;;5030691;28;20465;-72
2023/09/24 12:45:14;;;;;;;9.07;1.88;;;29.10;99.10;;;;;;5032189;28;20124;-73
2023/09/24 12:47:42;;;;;;;14.60;2.33;;;29.20;98.90;;;;;;5030382;28;20053;-73
2023/09/24 12:50:10;;;;;;;7.97;1.90;;;29.10;99.90;;;;;;5031478;28;20116;-73
2023/09/24 12:52:38;;;;;;;11.38;2.30;;;28.80;99.90;;;;;;5030537;28;20044;-73
2023/09/24 12:55:07;;;;;;;10.45;2.25;;;29.00;99.90;;;;;;5030116;28;20085;-72
2023/09/24 12:57:34;;;;;;;11.05;2.05;;;29.00;99.90;;;;;;5031774;28;20021;-72